createdAt,value
2018-12-29T00:01:52.701Z,101556.42
2018-12-29T00:06:56.883Z,101553.31
2018-12-29T00:12:01.098Z,101546.59
2018-12-29T00:17:05.342Z,101549.91
2018-12-29T00:22:09.565Z,101560.58
2018-12-29T00:27:13.673Z,101560.38
2018-12-29T00:32:17.795Z,101564.41
2018-12-29T00:37:21.811Z,101567.73
2018-12-29T00:42:25.818Z,101584.22
2018-12-29T00:47:29.935Z,101576.84
2018-12-29T00:52:33.971Z,101575.28
2018-12-29T00:57:38.022Z,101579.44
2018-12-29T01:02:42.033Z,101575.29
2018-12-29T01:07:45.966Z,101576.00
2018-12-29T01:12:49.934Z,101577.02
2018-12-29T01:17:53.845Z,101565.00
2018-12-29T01:22:57.777Z,101572.89
2018-12-29T01:28:01.768Z,101563.06
2018-12-29T01:33:05.785Z,101565.17
2018-12-29T01:38:09.701Z,101560.00
2018-12-29T01:43:13.686Z,101559.08
2018-12-29T01:48:17.767Z,101551.61
2018-12-29T01:53:21.694Z,101551.45
2018-12-29T01:58:25.802Z,101536.52
2018-12-29T02:03:29.658Z,101538.44
2018-12-29T02:08:33.609Z,101546.79
2018-12-29T02:13:37.619Z,101547.53
2018-12-29T02:18:41.493Z,101542.37
2018-12-29T02:23:45.594Z,101549.65
2018-12-29T02:28:49.635Z,101541.17
2018-12-29T02:33:53.541Z,101533.97
2018-12-29T02:38:57.591Z,101537.56
2018-12-29T02:44:01.443Z,101547.48
2018-12-29T02:49:05.516Z,101543.61
2018-12-29T02:54:09.503Z,101530.67
2018-12-29T02:59:13.562Z,101528.27
2018-12-29T03:04:17.562Z,101510.92
2018-12-29T03:09:21.438Z,101523.38
2018-12-29T03:14:25.515Z,101520.28
2018-12-29T03:19:29.442Z,101516.95
2018-12-29T03:24:33.398Z,101513.68
2018-12-29T03:29:37.451Z,101513.68
2018-12-29T03:34:41.537Z,101515.97
2018-12-29T03:39:45.488Z,101514.76
2018-12-29T03:44:49.733Z,101517.98
2018-12-29T03:49:53.729Z,101504.31
2018-12-29T03:54:57.649Z,101495.47
2018-12-29T04:00:01.613Z,101497.16
2018-12-29T04:05:06.239Z,101497.83
2018-12-29T04:10:14.419Z,101503.84
2018-12-29T04:15:18.430Z,101496.06
2018-12-29T04:20:22.480Z,101497.98
2018-12-29T04:25:26.760Z,101496.28
2018-12-29T04:30:30.779Z,101492.89
2018-12-29T04:35:34.937Z,101495.96
2018-12-29T04:40:38.959Z,101495.16
2018-12-29T04:45:43.036Z,101494.06
2018-12-29T04:50:47.080Z,101493.05
2018-12-29T04:55:51.141Z,101495.02
2018-12-29T05:00:55.137Z,101494.65
2018-12-29T05:06:00.502Z,101499.02
2018-12-29T05:11:04.522Z,101507.33
2018-12-29T05:16:12.797Z,101508.54
2018-12-29T05:21:14.080Z,101497.41
2018-12-29T05:26:18.144Z,101505.34
2018-12-29T05:31:22.107Z,101511.89
2018-12-29T05:36:26.263Z,101514.84
2018-12-29T05:41:30.229Z,101511.38
2018-12-29T05:46:34.157Z,101517.65
2018-12-29T05:51:38.085Z,101509.61
2018-12-29T05:56:42.116Z,101517.98
2018-12-29T06:01:46.108Z,101522.41
2018-12-29T06:06:50.121Z,101517.19
2018-12-29T06:11:54.186Z,101517.29
2018-12-29T06:16:58.240Z,101518.63
2018-12-29T06:22:02.214Z,101527.70
2018-12-29T06:27:06.246Z,101517.45
2018-12-29T06:32:10.173Z,101531.19
2018-12-29T06:37:14.107Z,101532.06
2018-12-29T06:42:18.130Z,101529.07
2018-12-29T06:47:22.118Z,101533.22
2018-12-29T06:52:25.997Z,101537.27
2018-12-29T06:57:29.912Z,101536.19
2018-12-29T07:02:34.116Z,101533.85
2018-12-29T07:07:38.059Z,101554.66
2018-12-29T07:12:41.983Z,101556.55
2018-12-29T07:17:45.886Z,101557.83
2018-12-29T07:22:49.818Z,101554.64
2018-12-29T07:27:53.799Z,101556.79
2018-12-29T07:32:57.838Z,101570.69
2018-12-29T07:38:01.686Z,101565.91
2018-12-29T07:43:10.922Z,101559.34
2018-12-29T07:48:30.297Z,101570.33
2018-12-29T07:53:34.414Z,101572.13
2018-12-29T07:58:41.276Z,101583.27
2018-12-29T08:03:45.412Z,101579.81
2018-12-29T08:08:50.743Z,101579.56
2018-12-29T08:13:57.744Z,101579.89
2018-12-29T08:19:02.969Z,101564.59
2018-12-29T08:24:06.981Z,101577.18
2018-12-29T08:29:15.298Z,101562.28
2018-12-29T08:34:20.406Z,101572.95
2018-12-29T08:39:24.173Z,101576.13
2018-12-29T08:44:27.922Z,101570.59
2018-12-29T08:49:31.693Z,101588.16
2018-12-29T08:54:35.496Z,101581.92
2018-12-29T08:59:39.382Z,101594.80
2018-12-29T09:04:43.186Z,101589.54
2018-12-29T09:09:46.979Z,101587.98
2018-12-29T09:14:51.662Z,101591.96
2018-12-29T09:19:55.419Z,101598.56
2018-12-29T09:24:59.183Z,101601.02
2018-12-29T09:30:03.057Z,101593.84
2018-12-29T09:35:06.880Z,101603.77
2018-12-29T09:40:10.635Z,101598.77
2018-12-29T09:45:14.399Z,101599.13
2018-12-29T09:50:18.178Z,101596.59
2018-12-29T09:55:21.943Z,101591.52
2018-12-29T10:00:25.711Z,101589.57
2018-12-29T10:05:29.518Z,101584.85
2018-12-29T10:10:33.358Z,101595.28
2018-12-29T10:15:37.126Z,101579.92
2018-12-29T10:20:40.861Z,101566.17
2018-12-29T10:25:44.701Z,101567.80
2018-12-29T10:30:48.439Z,101557.40
2018-12-29T10:35:52.171Z,101544.85
2018-12-29T10:40:56.106Z,101544.73
2018-12-29T10:45:59.871Z,101530.62
2018-12-29T10:51:03.707Z,101526.66
2018-12-29T10:56:07.435Z,101520.80
2018-12-29T11:01:11.247Z,101512.80
2018-12-29T11:06:15.033Z,101500.21
2018-12-29T11:11:18.780Z,101488.56
2018-12-29T11:16:26.703Z,101485.41
2018-12-29T11:21:30.610Z,101477.59
2018-12-29T11:26:34.506Z,101470.39
2018-12-29T11:31:38.237Z,101468.57
2018-12-29T11:36:42.015Z,101472.40
2018-12-29T11:41:45.921Z,101448.34
2018-12-29T11:46:49.647Z,101456.73
2018-12-29T11:51:53.407Z,101445.73
2018-12-29T11:56:57.221Z,101446.70
2018-12-29T12:02:01.007Z,101441.70
2018-12-29T12:07:04.844Z,101427.30
2018-12-29T12:12:08.637Z,101416.12
2018-12-29T12:17:12.443Z,101409.23
2018-12-29T12:22:16.284Z,101410.21
2018-12-29T12:27:20.070Z,101423.69
2018-12-29T12:32:24.049Z,101382.56
2018-12-29T12:37:28.085Z,101381.95
2018-12-29T12:42:32.271Z,101395.30
2018-12-29T12:47:36.093Z,101384.96
2018-12-29T12:52:39.865Z,101376.75
2018-12-29T12:57:43.622Z,101366.35
2018-12-29T13:02:48.016Z,101376.47
2018-12-29T13:07:51.842Z,101375.50
2018-12-29T13:12:55.894Z,101375.06
2018-12-29T13:17:59.952Z,101371.52
2018-12-29T13:23:04.220Z,101373.02
2018-12-29T13:28:08.263Z,101356.60
2018-12-29T13:33:12.487Z,101360.42
2018-12-29T13:38:17.643Z,101362.16
2018-12-29T13:43:21.670Z,101351.09
2018-12-29T13:48:25.579Z,101350.32
2018-12-29T13:53:29.613Z,101343.97
2018-12-29T13:58:33.518Z,101347.34
2018-12-29T14:03:37.626Z,101353.45
2018-12-29T14:08:41.412Z,101350.19
2018-12-29T14:13:46.577Z,101358.23
2018-12-29T14:18:50.599Z,101360.79
2018-12-29T14:23:54.607Z,101373.38
2018-12-29T14:28:58.560Z,101377.81
2018-12-29T14:34:02.607Z,101377.47
2018-12-29T14:39:07.526Z,101368.45
2018-12-29T14:44:11.443Z,101361.55
2018-12-29T14:49:15.288Z,101374.97
2018-12-29T14:54:19.188Z,101383.22
2018-12-29T14:59:23.120Z,101360.81
2018-12-29T15:04:27.016Z,101336.42
2018-12-29T15:09:30.810Z,101337.36
2018-12-29T15:14:44.281Z,101327.20
2018-12-29T15:19:48.101Z,101320.95
2018-12-29T15:24:55.293Z,101320.95
2018-12-29T15:30:05.408Z,101307.67
2018-12-29T15:35:18.409Z,101306.62
2018-12-29T15:40:22.297Z,101289.70
2018-12-29T15:45:26.106Z,101289.98
2018-12-29T15:50:29.857Z,101279.20
2018-12-29T15:55:34.107Z,101261.10
2018-12-29T16:00:51.950Z,101260.41
2018-12-29T16:05:55.736Z,101258.77
2018-12-29T16:10:59.571Z,101235.09
2018-12-29T16:16:03.404Z,101241.83
2018-12-29T16:21:11.058Z,101230.00
2018-12-29T16:26:14.854Z,101212.77
2018-12-29T16:31:19.015Z,101216.20
2018-12-29T16:36:22.885Z,101205.64
2018-12-29T16:41:26.619Z,101202.73
2018-12-29T16:46:30.536Z,101194.62
2018-12-29T16:51:34.401Z,101182.66
2018-12-29T16:56:38.175Z,101177.16
2018-12-29T17:01:42.049Z,101167.73
2018-12-29T17:07:24.383Z,101164.21
2018-12-29T17:12:29.643Z,101164.21
2018-12-29T17:17:33.386Z,101164.61
2018-12-29T17:22:37.202Z,101165.58
2018-12-29T17:27:41.018Z,101158.36
2018-12-29T17:32:44.803Z,101153.33
2018-12-29T17:37:48.536Z,101160.20
2018-12-29T17:42:52.466Z,101170.06
2018-12-29T17:47:56.279Z,101178.75
2018-12-29T17:53:00.491Z,101194.07
2018-12-29T17:58:04.272Z,101199.45
2018-12-29T18:03:08.261Z,101205.69
2018-12-29T18:08:11.977Z,101199.80
2018-12-29T18:13:15.744Z,101194.62
2018-12-29T18:18:19.473Z,101193.25
2018-12-29T18:23:23.561Z,101187.59
2018-12-29T18:28:27.363Z,101129.05
2018-12-29T18:33:37.241Z,101137.91
2018-12-29T18:38:36.835Z,101119.08
2018-12-29T18:43:40.609Z,101117.88
2018-12-29T18:48:44.412Z,101069.68
2018-12-29T18:53:48.319Z,101064.37
2018-12-29T18:58:52.304Z,101063.20
2018-12-29T19:03:56.070Z,101039.96
2018-12-29T19:09:00.155Z,101013.95
2018-12-29T19:14:04.311Z,100990.75
2018-12-29T19:19:08.088Z,100988.44
2018-12-29T19:24:12.065Z,101015.69
2018-12-29T19:29:18.092Z,101005.05
2018-12-29T19:34:21.937Z,101002.32
2018-12-29T19:39:25.868Z,100980.25
2018-12-29T19:44:29.731Z,100981.36
2018-12-29T19:49:34.006Z,100946.66
2018-12-29T19:54:38.172Z,100924.72
2018-12-29T20:00:06.961Z,100926.22
2018-12-29T20:05:22.933Z,100907.33
2018-12-29T20:10:27.338Z,100905.31
2018-12-29T20:15:31.177Z,100881.85
2018-12-29T20:20:35.086Z,100871.09
2018-12-29T20:26:25.094Z,100855.95
2018-12-29T20:31:29.322Z,100869.30
2018-12-29T20:36:33.229Z,100855.78
2018-12-29T20:41:37.474Z,100842.66
2018-12-29T20:46:41.204Z,100832.77
2018-12-29T20:51:45.021Z,100818.78
2018-12-29T20:56:48.877Z,100820.05
2018-12-29T21:01:52.687Z,100803.80
2018-12-29T21:06:56.405Z,100796.36
2018-12-29T21:12:00.151Z,100774.72
2018-12-29T21:17:04.019Z,100778.09
2018-12-29T21:22:08.124Z,100766.58
2018-12-29T21:27:13.984Z,100747.24
2018-12-29T21:32:17.772Z,100758.34
2018-12-29T21:37:21.879Z,100753.16
2018-12-29T21:42:25.750Z,100732.16
2018-12-29T21:47:29.520Z,100727.32
2018-12-29T21:52:33.265Z,100706.62
2018-12-29T21:57:37.080Z,100697.26
2018-12-29T22:02:40.863Z,100699.47
2018-12-29T22:07:44.681Z,100698.11
2018-12-29T22:12:48.532Z,100694.36
2018-12-29T22:17:52.419Z,100691.95
2018-12-29T22:22:56.349Z,100682.10
2018-12-29T22:28:00.264Z,100682.36
2018-12-29T22:33:04.167Z,100680.28
2018-12-29T22:38:08.982Z,100674.61
2018-12-29T22:43:13.013Z,100669.02
2018-12-29T22:48:16.943Z,100656.95
2018-12-29T22:53:20.916Z,100653.48
2018-12-29T22:58:24.951Z,100644.42
2018-12-29T23:03:28.882Z,100645.36
2018-12-29T23:08:33.500Z,100642.09
2018-12-29T23:13:37.602Z,100629.82
2018-12-29T23:18:41.360Z,100634.34
2018-12-29T23:23:45.211Z,100629.83
2018-12-29T23:28:49.009Z,100610.45
2018-12-29T23:33:52.750Z,100596.16
2018-12-29T23:38:56.719Z,100592.52
2018-12-29T23:44:00.622Z,100591.64
2018-12-29T23:49:04.572Z,100588.86
2018-12-29T23:54:08.425Z,100597.66
2018-12-29T23:59:15.296Z,100591.47
